createdAt,value
2023-05-17T00:00:33.769Z,7.90
2023-05-17T00:03:02.711Z,7.90
2023-05-17T00:05:31.602Z,7.80
2023-05-17T00:08:00.378Z,7.80
2023-05-17T00:10:29.322Z,7.80
2023-05-17T00:12:59.377Z,7.80
2023-05-17T00:15:28.382Z,7.70
2023-05-17T00:17:57.609Z,7.70
2023-05-17T00:20:26.373Z,7.70
2023-05-17T00:22:55.070Z,7.70
2023-05-17T00:25:23.823Z,7.70
2023-05-17T00:27:52.709Z,7.70
2023-05-17T00:30:23.028Z,7.70
2023-05-17T00:32:51.856Z,7.70
2023-05-17T00:35:20.773Z,7.70
2023-05-17T00:37:49.431Z,7.70
2023-05-17T00:40:18.302Z,7.80
2023-05-17T00:42:46.987Z,7.80
2023-05-17T00:45:16.122Z,7.90
2023-05-17T00:47:46.395Z,7.80
2023-05-17T00:50:15.644Z,7.80
2023-05-17T00:52:44.493Z,7.80
2023-05-17T00:55:13.519Z,7.80
2023-05-17T00:57:42.594Z,7.90
2023-05-17T01:00:12.327Z,7.90
2023-05-17T01:02:41.402Z,8.00
2023-05-17T01:05:11.656Z,8.00
2023-05-17T01:07:40.297Z,8.00
2023-05-17T01:10:10.514Z,8.00
2023-05-17T01:12:49.218Z,8.10
2023-05-17T01:15:25.765Z,8.20
2023-05-17T01:18:05.365Z,8.30
2023-05-17T01:20:39.005Z,8.40
2023-05-17T01:23:21.180Z,8.40
2023-05-17T01:26:00.260Z,8.40
2023-05-17T01:28:32.872Z,8.50
2023-05-17T01:31:04.076Z,8.60
2023-05-17T01:33:35.525Z,8.70
2023-05-17T01:36:04.312Z,8.70
2023-05-17T01:38:33.117Z,8.70
2023-05-17T01:41:09.488Z,8.70
2023-05-17T01:43:47.998Z,8.80
2023-05-17T01:46:24.045Z,8.80
2023-05-17T01:48:57.896Z,8.90
2023-05-17T01:51:32.262Z,8.90
2023-05-17T01:54:09.668Z,8.90
2023-05-17T01:56:47.926Z,8.90
2023-05-17T01:59:25.428Z,9.00
2023-05-17T02:02:04.068Z,9.10
2023-05-17T02:04:33.321Z,9.20
2023-05-17T02:07:02.050Z,9.30
2023-05-17T02:09:31.010Z,9.40
2023-05-17T02:11:59.677Z,9.50
2023-05-17T02:14:30.220Z,9.50
2023-05-17T02:16:58.919Z,9.40
2023-05-17T02:19:27.675Z,9.40
2023-05-17T02:21:56.287Z,9.30
2023-05-17T02:24:27.556Z,9.40
2023-05-17T02:26:56.314Z,9.40
2023-05-17T02:29:25.016Z,9.40
2023-05-17T02:31:55.123Z,9.40
2023-05-17T02:34:23.925Z,9.40
2023-05-17T02:36:53.196Z,9.40
2023-05-17T02:39:22.033Z,9.40
2023-05-17T02:41:50.744Z,9.40
2023-05-17T02:44:19.559Z,9.40
2023-05-17T02:46:48.413Z,9.40
2023-05-17T02:49:18.698Z,9.40
2023-05-17T02:51:47.550Z,9.40
2023-05-17T02:54:18.490Z,9.40
2023-05-17T02:56:49.126Z,9.40
2023-05-17T02:59:17.946Z,9.30
2023-05-17T03:01:46.634Z,9.20
2023-05-17T03:04:15.509Z,9.10
2023-05-17T03:06:45.955Z,9.00
2023-05-17T03:09:15.110Z,8.80
2023-05-17T03:11:43.811Z,8.80
2023-05-17T03:14:12.668Z,8.60
2023-05-17T03:16:41.593Z,8.50
2023-05-17T03:19:10.351Z,8.40
2023-05-17T03:21:39.339Z,8.30
2023-05-17T03:24:09.904Z,8.20
2023-05-17T03:26:42.413Z,8.10
2023-05-17T03:29:14.135Z,8.00
2023-05-17T03:31:45.597Z,7.90
2023-05-17T03:34:14.443Z,7.80
2023-05-17T03:36:43.185Z,7.80
2023-05-17T03:39:13.397Z,7.70
2023-05-17T03:41:42.928Z,7.70
2023-05-17T03:44:11.655Z,7.60
2023-05-17T03:46:40.498Z,7.60
2023-05-17T03:49:09.514Z,7.60
2023-05-17T03:51:38.808Z,7.60
2023-05-17T03:54:07.852Z,7.60
2023-05-17T03:56:38.033Z,7.70
2023-05-17T03:59:06.783Z,7.70
2023-05-17T04:01:35.485Z,7.80
2023-05-17T04:04:08.893Z,7.80
2023-05-17T04:06:37.829Z,7.80
2023-05-17T04:09:10.263Z,7.70
2023-05-17T04:11:40.770Z,7.70
2023-05-17T04:14:09.585Z,7.60
2023-05-17T04:16:38.333Z,7.60
2023-05-17T04:19:07.174Z,7.50
2023-05-17T04:21:36.055Z,7.50
2023-05-17T04:24:05.009Z,7.50
2023-05-17T04:26:34.618Z,7.50
2023-05-17T04:29:04.775Z,7.50
2023-05-17T04:31:34.006Z,7.50
2023-05-17T04:34:02.787Z,7.40
2023-05-17T04:36:37.466Z,7.40
2023-05-17T04:39:06.312Z,7.50
2023-05-17T04:41:35.188Z,7.50
2023-05-17T04:44:05.656Z,7.50
2023-05-17T04:46:34.404Z,7.50
2023-05-17T04:49:03.322Z,7.60
2023-05-17T04:51:34.404Z,7.60
2023-05-17T04:54:06.928Z,7.60
2023-05-17T04:56:36.555Z,7.70
2023-05-17T04:59:12.722Z,7.70
2023-05-17T05:01:41.457Z,7.90
2023-05-17T05:04:13.596Z,8.00
2023-05-17T05:06:45.156Z,8.10
2023-05-17T05:09:14.146Z,8.20
2023-05-17T05:11:42.835Z,8.30
2023-05-17T05:14:13.076Z,8.40
2023-05-17T05:16:41.847Z,8.40
2023-05-17T05:19:10.743Z,8.40
2023-05-17T05:21:39.742Z,8.50
2023-05-17T05:24:11.530Z,8.60
2023-05-17T05:26:42.971Z,8.70
2023-05-17T05:29:13.250Z,8.90
2023-05-17T05:31:41.886Z,9.00
2023-05-17T05:34:10.814Z,9.10
2023-05-17T05:36:39.775Z,9.10
2023-05-17T05:39:09.230Z,9.10
2023-05-17T05:41:38.175Z,9.10
2023-05-17T05:44:07.214Z,9.30
2023-05-17T05:46:37.539Z,9.50
2023-05-17T05:49:06.473Z,9.60
2023-05-17T05:51:35.531Z,9.70
2023-05-17T05:54:04.267Z,9.70
2023-05-17T05:56:33.063Z,9.90
2023-05-17T05:59:03.491Z,10.20
2023-05-17T06:01:32.204Z,10.40
2023-05-17T06:04:02.379Z,10.40
2023-05-17T06:06:31.447Z,10.40
2023-05-17T06:09:00.532Z,10.40
2023-05-17T06:11:29.428Z,10.30
2023-05-17T06:13:58.187Z,10.40
2023-05-17T06:16:26.974Z,10.30
2023-05-17T06:18:56.460Z,10.30
2023-05-17T06:21:26.668Z,10.20
2023-05-17T06:23:55.514Z,10.20
2023-05-17T06:26:26.046Z,10.10
2023-05-17T06:28:54.788Z,10.00
2023-05-17T06:31:23.526Z,10.00
2023-05-17T06:33:52.562Z,10.10
2023-05-17T06:36:21.368Z,10.20
2023-05-17T06:38:51.511Z,10.40
2023-05-17T06:41:20.531Z,10.50
2023-05-17T06:43:49.444Z,10.50
2023-05-17T06:46:18.229Z,10.60
2023-05-17T06:48:48.788Z,10.80
2023-05-17T06:51:19.713Z,10.80
2023-05-17T06:53:48.538Z,10.90
2023-05-17T06:56:18.666Z,10.90
2023-05-17T06:58:47.396Z,11.00
2023-05-17T07:01:16.987Z,10.90
2023-05-17T07:03:45.816Z,11.00
2023-05-17T07:06:14.606Z,11.10
2023-05-17T07:08:43.375Z,11.20
2023-05-17T07:11:12.139Z,11.20
2023-05-17T07:13:42.282Z,11.20
2023-05-17T07:16:11.603Z,11.40
2023-05-17T07:18:40.631Z,11.60
2023-05-17T07:21:14.658Z,11.70
2023-05-17T07:23:44.865Z,11.80
2023-05-17T07:26:14.235Z,11.80
2023-05-17T07:28:44.449Z,11.90
2023-05-17T07:31:13.440Z,11.90
2023-05-17T07:33:42.223Z,11.90
2023-05-17T07:36:11.238Z,11.80
2023-05-17T07:38:40.093Z,11.80
2023-05-17T07:41:09.895Z,11.90
2023-05-17T07:43:39.216Z,11.90
2023-05-17T07:46:09.662Z,11.80
2023-05-17T07:48:38.401Z,12.00
2023-05-17T07:51:07.396Z,12.20
2023-05-17T07:53:37.707Z,12.40
2023-05-17T07:56:06.919Z,12.30
2023-05-17T07:58:36.586Z,12.40
2023-05-17T08:01:05.420Z,12.60
2023-05-17T08:03:35.530Z,12.80
2023-05-17T08:06:07.840Z,12.70
2023-05-17T08:08:38.924Z,12.50
2023-05-17T08:11:08.262Z,12.50
2023-05-17T08:13:37.029Z,12.60
2023-05-17T08:16:14.115Z,12.80
2023-05-17T08:18:45.059Z,12.80
2023-05-17T08:21:14.251Z,12.90
2023-05-17T08:23:43.000Z,13.00
2023-05-17T08:26:13.065Z,13.10
2023-05-17T08:28:41.686Z,13.20
2023-05-17T08:31:11.718Z,13.40
2023-05-17T08:33:40.520Z,13.20
2023-05-17T08:36:16.226Z,12.80
2023-05-17T08:38:44.901Z,12.60
2023-05-17T08:41:14.795Z,12.60
2023-05-17T08:43:44.157Z,13.00
2023-05-17T08:46:14.722Z,13.10
2023-05-17T08:48:45.881Z,13.10
2023-05-17T08:51:16.698Z,13.20
2023-05-17T08:53:47.004Z,13.10
2023-05-17T08:56:19.048Z,12.90
2023-05-17T08:58:57.015Z,13.00
2023-05-17T09:01:28.372Z,13.00
2023-05-17T09:03:58.118Z,13.00
2023-05-17T09:06:28.604Z,13.00
2023-05-17T09:08:58.559Z,12.90
2023-05-17T09:11:29.817Z,13.10
2023-05-17T09:14:01.001Z,13.40
2023-05-17T09:16:30.465Z,13.70
2023-05-17T09:19:00.089Z,14.00
2023-05-17T09:21:31.580Z,14.10
2023-05-17T09:26:40.495Z,14.10
2023-05-17T09:29:13.026Z,14.10
2023-05-17T09:31:43.023Z,14.20
2023-05-17T09:34:12.548Z,14.00
2023-05-17T09:36:44.790Z,14.00
2023-05-17T09:39:15.248Z,13.80
2023-05-17T09:41:47.223Z,13.70
2023-05-17T09:44:19.715Z,13.80
2023-05-17T09:46:49.911Z,13.90
2023-05-17T09:49:19.177Z,14.30
2023-05-17T09:51:50.645Z,14.40
2023-05-17T09:54:19.503Z,14.20
2023-05-17T09:56:54.903Z,14.30
2023-05-17T09:59:28.480Z,14.20
2023-05-17T10:02:00.600Z,14.40
2023-05-17T10:04:32.003Z,14.20
2023-05-17T10:07:02.937Z,13.80
2023-05-17T10:09:36.990Z,13.90
2023-05-17T10:12:08.093Z,14.10
2023-05-17T10:14:38.161Z,14.40
2023-05-17T10:17:09.256Z,14.70
2023-05-17T10:19:39.025Z,15.10
2023-05-17T10:22:22.503Z,15.10
2023-05-17T10:24:53.233Z,15.10
2023-05-17T10:27:22.857Z,15.10
2023-05-17T10:29:52.427Z,15.50
2023-05-17T10:32:23.317Z,15.70
2023-05-17T10:35:05.857Z,15.80
2023-05-17T10:37:41.258Z,15.90
2023-05-17T10:40:13.821Z,15.70
2023-05-17T10:42:46.372Z,15.10
2023-05-17T10:45:15.336Z,14.90
2023-05-17T10:47:46.326Z,15.20
2023-05-17T10:50:15.636Z,15.80
2023-05-17T10:52:49.889Z,16.10
2023-05-17T10:55:22.444Z,15.70
2023-05-17T10:58:16.120Z,15.00
2023-05-17T11:00:47.091Z,15.40
2023-05-17T11:03:18.264Z,15.70
2023-05-17T11:06:23.681Z,15.80
2023-05-17T11:09:16.897Z,15.80
2023-05-17T11:12:11.016Z,15.90
2023-05-17T11:14:53.687Z,16.00
2023-05-17T11:17:25.111Z,16.00
2023-05-17T11:20:13.453Z,15.90
2023-05-17T11:22:45.002Z,15.40
2023-05-17T11:25:15.772Z,15.10
2023-05-17T11:27:47.442Z,15.30
2023-05-17T11:30:20.808Z,15.60
2023-05-17T11:32:51.915Z,15.60
2023-05-17T11:35:25.634Z,15.90
2023-05-17T11:37:55.666Z,16.10
2023-05-17T11:40:29.336Z,16.00
2023-05-17T11:43:18.430Z,16.20
2023-05-17T11:45:52.859Z,16.30
2023-05-17T11:48:24.047Z,16.60
2023-05-17T11:50:54.150Z,16.90
2023-05-17T11:53:23.844Z,17.00
2023-05-17T11:55:54.270Z,16.60
2023-05-17T11:58:27.817Z,16.00
2023-05-17T12:00:58.149Z,15.90
2023-05-17T12:03:28.957Z,16.10
2023-05-17T12:06:05.482Z,16.20
2023-05-17T12:08:35.540Z,16.40
2023-05-17T12:11:06.820Z,16.50
2023-05-17T12:13:38.812Z,16.40
2023-05-17T12:16:11.534Z,16.30
2023-05-17T12:18:42.921Z,16.60
2023-05-17T12:21:15.371Z,17.10
2023-05-17T12:23:46.905Z,17.50
2023-05-17T12:26:19.492Z,17.90
2023-05-17T12:28:54.617Z,18.00
2023-05-17T12:31:28.522Z,17.20
2023-05-17T12:33:59.416Z,16.90
2023-05-17T12:36:30.230Z,17.00
2023-05-17T12:38:59.172Z,17.00
2023-05-17T12:41:31.404Z,17.30
2023-05-17T12:44:13.490Z,17.30
2023-05-17T12:46:44.719Z,17.10
2023-05-17T12:49:13.771Z,17.30
2023-05-17T12:51:44.029Z,17.70
2023-05-17T12:54:13.433Z,17.80
2023-05-17T12:56:45.684Z,17.70
2023-05-17T12:59:16.900Z,16.90
2023-05-17T13:01:47.292Z,17.00
2023-05-17T13:04:18.529Z,17.30
2023-05-17T13:06:50.875Z,17.70
2023-05-17T13:09:20.816Z,18.10
2023-05-17T13:11:54.104Z,18.10
2023-05-17T13:14:40.012Z,18.20
2023-05-17T13:17:11.532Z,18.60
2023-05-17T13:19:40.713Z,18.20
2023-05-17T13:22:12.496Z,18.00
2023-05-17T13:24:41.544Z,17.60
2023-05-17T13:27:13.066Z,17.20
2023-05-17T13:29:43.543Z,17.30
2023-05-17T13:32:13.822Z,16.90
2023-05-17T13:34:42.744Z,16.70
2023-05-17T13:37:12.716Z,16.70
2023-05-17T13:39:44.653Z,17.10
2023-05-17T13:42:14.797Z,17.50
2023-05-17T13:44:43.804Z,17.90
2023-05-17T13:47:12.514Z,18.20
2023-05-17T13:49:41.420Z,18.30
2023-05-17T13:52:12.418Z,18.20
2023-05-17T13:54:43.245Z,18.60
2023-05-17T13:57:14.535Z,18.70
2023-05-17T13:59:45.061Z,18.60
2023-05-17T14:02:14.655Z,18.10
2023-05-17T14:04:43.419Z,17.10
2023-05-17T14:07:12.186Z,16.70
2023-05-17T14:09:41.274Z,16.70
2023-05-17T14:12:10.229Z,17.50
2023-05-17T14:14:40.402Z,17.70
2023-05-17T14:17:12.489Z,17.90
2023-05-17T14:19:41.410Z,17.90
2023-05-17T14:22:10.181Z,17.70
2023-05-17T14:24:41.783Z,18.00
2023-05-17T14:27:10.570Z,18.20
2023-05-17T14:29:40.739Z,18.50
2023-05-17T14:32:13.116Z,18.60
2023-05-17T14:34:41.868Z,18.40
2023-05-17T14:37:10.587Z,18.10
2023-05-17T14:39:39.508Z,17.70
2023-05-17T14:42:08.524Z,17.90
2023-05-17T14:44:39.871Z,18.20
2023-05-17T14:47:10.158Z,18.50
2023-05-17T14:49:39.141Z,18.80
2023-05-17T14:52:07.976Z,18.60
2023-05-17T14:54:36.722Z,18.70
2023-05-17T14:57:06.131Z,18.70
2023-05-17T14:59:38.080Z,18.80
2023-05-17T15:02:06.880Z,18.40
2023-05-17T15:04:37.140Z,18.50
2023-05-17T15:07:08.269Z,18.60
2023-05-17T15:09:41.555Z,19.20
2023-05-17T15:12:12.388Z,18.80
2023-05-17T15:14:42.524Z,18.50
2023-05-17T15:17:11.822Z,18.40
2023-05-17T15:19:42.263Z,18.00
2023-05-17T15:22:11.098Z,18.00
2023-05-17T15:24:39.880Z,18.30
2023-05-17T15:27:08.775Z,18.60
2023-05-17T15:29:42.286Z,18.30
2023-05-17T15:32:10.995Z,18.40
2023-05-17T15:34:41.283Z,18.00
2023-05-17T15:37:10.222Z,17.30
2023-05-17T15:39:39.189Z,17.30
2023-05-17T15:42:07.898Z,17.40
2023-05-17T15:44:36.729Z,18.00
2023-05-17T15:47:05.779Z,18.20
2023-05-17T15:49:35.038Z,18.00
2023-05-17T15:52:05.684Z,18.30
2023-05-17T15:54:34.433Z,18.60
2023-05-17T15:57:03.103Z,18.60
2023-05-17T15:59:32.234Z,18.40
2023-05-17T16:02:01.030Z,18.30
2023-05-17T16:04:29.807Z,18.70
2023-05-17T16:06:59.107Z,18.80
2023-05-17T16:09:29.325Z,19.00
2023-05-17T16:11:58.033Z,18.80
2023-05-17T16:14:26.800Z,18.90
2023-05-17T16:16:55.434Z,18.60
2023-05-17T16:19:24.451Z,18.80
2023-05-17T16:21:53.706Z,18.70
2023-05-17T16:24:22.557Z,18.40
2023-05-17T16:26:52.828Z,18.30
2023-05-17T16:29:21.536Z,18.00
2023-05-17T16:31:51.551Z,18.30
2023-05-17T16:34:20.459Z,18.40
2023-05-17T16:36:50.622Z,18.00
2023-05-17T16:39:19.588Z,17.40
2023-05-17T16:41:52.600Z,16.80
2023-05-17T16:44:25.685Z,17.10
2023-05-17T16:47:00.272Z,18.10
2023-05-17T16:49:30.253Z,18.30
2023-05-17T16:51:59.141Z,18.70
2023-05-17T16:54:28.544Z,19.00
2023-05-17T16:56:57.506Z,19.20
2023-05-17T16:59:27.804Z,19.50
2023-05-17T17:01:56.736Z,19.10
2023-05-17T17:04:33.453Z,19.00
2023-05-17T17:07:02.710Z,19.40
2023-05-17T17:09:31.907Z,19.60
2023-05-17T17:12:16.272Z,19.50
2023-05-17T17:14:53.654Z,20.10
2023-05-17T17:17:22.639Z,20.10
2023-05-17T17:19:52.266Z,20.20
2023-05-17T17:22:21.037Z,20.10
2023-05-17T17:24:49.892Z,20.10
2023-05-17T17:27:18.849Z,20.20
2023-05-17T17:29:47.619Z,19.80
2023-05-17T17:32:17.898Z,19.40
2023-05-17T17:34:46.799Z,18.90
2023-05-17T17:37:15.589Z,18.50
2023-05-17T17:39:44.578Z,18.00
2023-05-17T17:42:13.401Z,17.20
2023-05-17T17:44:42.083Z,17.00
2023-05-17T17:47:11.016Z,16.60
2023-05-17T17:49:41.346Z,16.60
2023-05-17T17:52:10.077Z,16.10
2023-05-17T17:54:39.094Z,15.80
2023-05-17T17:57:08.266Z,15.50
2023-05-17T17:59:36.961Z,15.30
2023-05-17T18:02:05.921Z,15.50
2023-05-17T18:04:34.690Z,15.50
2023-05-17T18:07:05.028Z,15.30
2023-05-17T18:09:33.880Z,15.20
2023-05-17T18:12:02.627Z,15.00
2023-05-17T18:14:31.352Z,14.80
2023-05-17T18:17:00.267Z,14.40
2023-05-17T18:19:29.214Z,14.20
2023-05-17T18:21:57.888Z,14.00
2023-05-17T18:24:28.018Z,14.10
2023-05-17T18:26:56.854Z,14.00
2023-05-17T18:29:25.640Z,14.00
2023-05-17T18:31:54.439Z,14.10
2023-05-17T18:34:25.333Z,13.90
2023-05-17T18:36:54.321Z,13.70
2023-05-17T18:39:23.044Z,13.50
2023-05-17T18:41:53.154Z,13.40
2023-05-17T18:44:22.064Z,13.10
2023-05-17T18:46:51.059Z,13.10
2023-05-17T18:49:21.291Z,13.00
2023-05-17T18:51:50.254Z,12.80
2023-05-17T18:54:19.244Z,12.70
2023-05-17T18:56:47.995Z,12.60
2023-05-17T18:59:18.118Z,12.40
2023-05-17T19:01:46.976Z,12.20
2023-05-17T19:04:15.985Z,12.20
2023-05-17T19:06:44.766Z,12.10
2023-05-17T19:09:13.694Z,12.00
2023-05-17T19:11:42.481Z,11.90
2023-05-17T19:14:11.433Z,11.80
2023-05-17T19:16:41.486Z,11.70
2023-05-17T19:19:10.317Z,11.60
2023-05-17T19:21:39.324Z,11.40
2023-05-17T19:24:08.327Z,11.40
2023-05-17T19:26:37.151Z,11.20
2023-05-17T19:29:05.883Z,11.20
2023-05-17T19:31:35.128Z,11.00
2023-05-17T19:34:05.165Z,11.00
2023-05-17T19:36:34.009Z,10.90
2023-05-17T19:39:02.930Z,10.80
2023-05-17T19:41:31.718Z,11.10
2023-05-17T19:44:00.513Z,11.40
2023-05-17T19:46:29.266Z,11.30
2023-05-17T19:48:58.316Z,10.90
2023-05-17T19:51:28.524Z,10.60
2023-05-17T19:53:57.523Z,10.50
2023-05-17T19:56:27.311Z,10.30
2023-05-17T19:58:58.778Z,10.20
2023-05-17T20:01:27.663Z,10.20
2023-05-17T20:03:56.658Z,10.10
2023-05-17T20:06:25.452Z,10.10
2023-05-17T20:08:55.569Z,10.00
2023-05-17T20:11:25.509Z,9.90
2023-05-17T20:13:54.272Z,9.80
2023-05-17T20:16:23.200Z,9.70
2023-05-17T20:18:52.006Z,9.70
2023-05-17T20:21:21.815Z,9.60
2023-05-17T20:23:51.442Z,9.60
2023-05-17T20:26:25.961Z,9.50
2023-05-17T20:28:54.878Z,9.40
2023-05-17T20:31:23.736Z,9.40
2023-05-17T20:33:52.992Z,9.40
2023-05-17T20:36:22.008Z,9.30
2023-05-17T20:38:50.659Z,9.30
2023-05-17T20:41:19.317Z,9.30
2023-05-17T20:43:51.837Z,9.20
2023-05-17T20:46:20.976Z,9.10
2023-05-17T20:48:49.990Z,9.10
2023-05-17T20:51:19.676Z,9.00
2023-05-17T20:53:50.720Z,9.00
2023-05-17T20:56:19.599Z,8.90
2023-05-17T20:58:50.051Z,8.80
2023-05-17T21:01:18.910Z,8.70
2023-05-17T21:03:48.094Z,8.80
2023-05-17T21:06:16.882Z,8.70
2023-05-17T21:08:46.191Z,8.60
2023-05-17T21:11:21.458Z,8.60
2023-05-17T21:13:52.097Z,8.60
2023-05-17T21:16:21.054Z,8.50
2023-05-17T21:18:49.897Z,8.50
2023-05-17T21:21:18.952Z,8.50
2023-05-17T21:23:47.964Z,8.40
2023-05-17T21:26:19.540Z,8.40
2023-05-17T21:28:48.275Z,8.40
2023-05-17T21:31:18.518Z,8.30
2023-05-17T21:33:47.247Z,8.30
2023-05-17T21:36:15.928Z,8.30
2023-05-17T21:38:44.667Z,8.20
2023-05-17T21:41:13.361Z,8.20
2023-05-17T21:43:42.062Z,8.10
2023-05-17T21:46:10.843Z,8.20
2023-05-17T21:48:41.065Z,8.20
2023-05-17T21:51:09.753Z,8.10
2023-05-17T21:53:38.472Z,8.00
2023-05-17T21:56:08.019Z,8.00
2023-05-17T21:58:38.950Z,7.90
2023-05-17T22:01:08.552Z,7.80
2023-05-17T22:03:37.441Z,7.80
2023-05-17T22:06:08.223Z,7.80
2023-05-17T22:08:37.074Z,7.80
2023-05-17T22:11:06.004Z,7.70
2023-05-17T22:13:34.716Z,7.70
2023-05-17T22:16:03.423Z,7.70
2023-05-17T22:18:32.442Z,7.60
2023-05-17T22:21:01.247Z,7.50
2023-05-17T22:23:31.403Z,7.50
2023-05-17T22:26:00.785Z,7.50
2023-05-17T22:28:31.525Z,7.50
2023-05-17T22:31:00.195Z,7.50
2023-05-17T22:33:29.677Z,7.50
2023-05-17T22:35:58.744Z,7.40
2023-05-17T22:38:27.541Z,7.40
2023-05-17T22:40:57.602Z,7.30
2023-05-17T22:43:28.155Z,7.30
2023-05-17T22:45:59.942Z,7.30
2023-05-17T22:48:30.519Z,7.30
2023-05-17T22:51:00.931Z,7.30
2023-05-17T22:53:29.880Z,7.30
2023-05-17T22:56:00.016Z,7.30
2023-05-17T22:58:28.747Z,7.30
2023-05-17T23:00:57.469Z,7.30
2023-05-17T23:03:26.399Z,7.20
2023-05-17T23:06:02.232Z,7.10
2023-05-17T23:08:31.348Z,7.10
2023-05-17T23:11:01.800Z,7.00
2023-05-17T23:13:30.520Z,7.00
2023-05-17T23:15:59.187Z,7.00
2023-05-17T23:18:28.444Z,7.00
2023-05-17T23:20:58.978Z,6.90
2023-05-17T23:23:30.034Z,7.00
2023-05-17T23:25:58.815Z,7.00
2023-05-17T23:28:28.870Z,6.90
2023-05-17T23:31:01.268Z,6.80
2023-05-17T23:33:31.263Z,6.80
2023-05-17T23:36:00.007Z,6.80
2023-05-17T23:38:28.633Z,6.70
2023-05-17T23:40:58.328Z,6.70
2023-05-17T23:43:28.324Z,6.70
2023-05-17T23:45:57.603Z,6.70
2023-05-17T23:48:26.720Z,6.60
2023-05-17T23:50:56.842Z,6.60
2023-05-17T23:53:26.305Z,6.60
2023-05-17T23:55:57.861Z,6.50
2023-05-17T23:58:28.100Z,6.50
